Nearby METAR Reports

 

KIAG - Niagara Falls, New York, USA
Distance from station: W 12mi, 20km
Updated: 01/28/2022 4:53am
Overcast
Overcast
 Wind from N
Wind: N 13 mph , 20 km/h
Temperature: 23°F , -5°C
Wind Chill: 11°F , -12°C
Dew Point: 12°F , -11°C
Humidity: 63%
Barometer: 1020.3 hPa
Clouds: Overcast
Visibility: 10 miles , 16 km
Cloud details: Few Clouds 3200 ft
Mostly cloudy 4500 ft
Overcast 6000 ft
2022/01/28 09:53 KIAG 280953Z 36011KT 10SM FEW032 BKN045 OVC060 M05/M11 A3013 RMK AO2 SLP221 T10501111
KBUF - Buffalo/Cheektow, New York, USA
Distance from station: S 13mi, 21km
Updated: 01/28/2022 4:54am
Overcast
Overcast
 Wind from N
Wind: N 18 mph , 30 km/h, Gust: 23 mph , 37 km/h
Temperature: 25°F , -4°C
Wind Chill: 11°F , -12°C
Dew Point: 16°F , -9°C
Humidity: 69%
Barometer: 1019.6 hPa
Clouds: Overcast
Visibility: 10 miles , 16 km
Cloud details: Mostly cloudy 2000 ft
Overcast 2600 ft
2022/01/28 09:54 KBUF 280954Z 35016G20KT 10SM BKN020 OVC026 M04/M09 A3011 RMK AO2 SLP207 T10441094
 
KROC - Rochester, New York, USA
Distance from station: E 51mi, 82km
Updated: 01/28/2022 5:40am
Light snow, Overcast
Light snow, Overcast
 Wind from NNW
Wind: NNW 14 mph , 22 km/h
Temperature: 25°F , -4°C
Wind Chill: 13°F , -11°C
Dew Point: 14°F , -10°C
Humidity: 63%
Barometer: 1020 hPa
Summary: Light Snow
Clouds: Overcast
Visibility: 9 miles , 14 km
Cloud details: Overcast 3000 ft
2022/01/28 10:40 KROC 281040Z 33012KT 9SM -SN OVC030 M04/M10 A3012 RMK AO2 P0000 T10441100
CYSN - St. Catharines A, Ontario, Canada
Distance from station: WNW 25mi, 40km
Updated: 01/27/2022 9:00pm
NOT Current
Light snow, Low drifting, Snow, Overcast
Light snow, Low drifting, Snow, Overcast
 Wind from WSW
Wind: WSW 15 mph , 24 km/h, Gust: 21 mph , 33 km/h
Temperature: 28°F , -2°C
Wind Chill: 16°F , -9°C
Dew Point: 21°F , -6°C
Humidity: 74%
Barometer: 1018.6 hPa
Summary: Light snow, Low drifting, Snow
Clouds: Overcast
Visibility: 8 miles , 13 km
Cloud details: Overcast 3200 ft
2022/01/28 02:00 CYSN 280200Z 25013G18KT 8SM -SN DRSN OVC032 M02/M06 A3008 RMK SC8 LAST STFD OBS/NEXT 281200 UTC SLP194
 
KOLE - Olean, New York, USA
Distance from station: SSE 63mi, 102km
Updated: 01/28/2022 5:35am
Mist, Overcast
Mist, Overcast
 Wind from NW
Wind: NW 5 mph , 7 km/h
Temperature: 21°F , -6°C
Wind Chill: 14°F , -10°C
Dew Point: 21°F , -6°C
Humidity: 100%
Barometer: 1015.9 hPa
Summary: Mist
Clouds: Overcast
Visibility: 3 miles , 5 km
Cloud details: Overcast 300 ft
2022/01/28 10:35 KOLE 281035Z AUTO 31004KT 3SM BR OVC003 M06/M06 A3000 RMK AO2
KJHW - Jamestown, New York, USA
Distance from station: SSW 74mi, 119km
Updated: 01/28/2022 5:33am
Light snow, Overcast
Light snow, Overcast
 Wind from N
Wind: N 10 mph , 17 km/h
Temperature: 19°F , -7°C
Wind Chill: 8°F , -13°C
Dew Point: 18°F , -8°C
Humidity: 93%
Barometer: 1017.3 hPa
Summary: Light Snow
Clouds: Overcast
Visibility: 9 miles , 14 km
Cloud details: Partly cloudy 900 ft
Overcast 1500 ft
2022/01/28 10:33 KJHW 281033Z AUTO 36009KT 9SM -SN SCT009 OVC015 M07/M08 A3004 RMK AO2 P0000 FZRANO
 
CWWZ - Port Weller (mar, Ontario, Canada
Distance from station: WNW 28mi, 45km
Updated: 01/28/2022 5:00am

 Wind from NNW
Wind: NNW 24 mph , 39 km/h
Temperature: 23°F , -5°C
Wind Chill: 7°F , -14°C
Dew Point: 18°F , -8°C
Humidity: 80%
2022/01/28 10:00 CWWZ 281000Z AUTO 34021KT M05/M08 RMK AO1 SOG 19 2023 PK WND 34025/0928 SLP224 T10531083
CWPC - Port Colborne(Au, Ontario, Canada
Distance from station: WSW 33mi, 53km
Updated: 01/28/2022 5:00am

 Wind from N
Wind: N 21 mph , 33 km/h, Gust: 29 mph , 46 km/h
Temperature: 21°F , -6°C
Wind Chill: 5°F , -15°C
Dew Point: 12°F , -11°C
Humidity: 68%
2022/01/28 10:00 CWPC 281000Z AUTO 01018G25KT M06/M11 RMK AO1 PK WND 01025/0953 SLP218 T10571108 53014
 
CXVN - Vineland (au8), Ontario, Canada
Distance from station: W 36mi, 58km
Updated: 01/28/2022 5:00am

 Wind from N
Wind: N 20 mph , 31 km/h, Gust: 25 mph , 41 km/h
Temperature: 19°F , -7°C
Wind Chill: 3°F , -16°C
Dew Point: 10°F , -12°C
Humidity: 68%
2022/01/28 10:00 CXVN 281000Z AUTO 36017G22KT M07/M12 RMK AO1 SOG 14 3026 PK WND 35024/0924 SLP227 T10671115
CYTZ - Toronto Il Vor, Ontario, Canada
Distance from station: NW 50mi, 81km
Updated: 01/28/2022 5:00am
Few Clouds
Few Clouds
 Wind from NW
Wind: NW 13 mph , 20 km/h, Gust: 29 mph , 46 km/h
Temperature: 12°F , -11°C
Wind Chill: -3°F , -19°C
Dew Point: 3°F , -16°C
Humidity: 67%
Barometer: 1022.4 hPa
Clouds: Few Clouds
Visibility: 9 miles , 14 km
Cloud details: Few Clouds 7100 ft
2022/01/28 10:00 CYTZ 281000Z AUTO 32011G25KT 300V020 9SM FEW071 M11/M16 A3019 RMK PRESRR SLP229
 
CXTO - Toronto City, Ontario, Canada
Distance from station: NW 52mi, 84km
Updated: 01/28/2022 5:00am

 
Temperature: 12°F , -11°C
Dew Point: 3°F , -16°C
Humidity: 67%
2022/01/28 10:00 CXTO 281000Z AUTO M11/M16 RMK AO1 SOG 21 3025 SLP222 T11071158
KDKK - Dunkirk, New York, USA
Distance from station: SW 52mi, 84km
Updated: 01/28/2022 5:43am
Light snow, Overcast
Light snow, Overcast
 Wind from NNE
Wind: NNE 13 mph , 20 km/h
Temperature: 25°F , -4°C
Wind Chill: 13°F , -11°C
Dew Point: 19°F , -7°C
Humidity: 80%
Barometer: 1020.3 hPa
Summary: Light Snow
Clouds: Overcast
Visibility: 1 1/2 miles , 2.4 km
Cloud details: Mostly cloudy 1600 ft
Overcast 2300 ft
2022/01/28 10:43 KDKK 281043Z AUTO 02011KT 1 1/2SM -SN BKN016 OVC023 M04/M07 A3013 RMK AO2 P0000 T10441072
 
CYOO - Oshawa, Ontario, Canada
Distance from station: N 56mi, 90km
Updated: 01/28/2022 5:00am
Clear
Clear
 Wind from NNW
Wind: NNW 12 mph , 19 km/h, Gust: 23 mph , 37 km/h
Temperature: 9°F , -13°C
Wind Chill: -6°F , -21°C
Dew Point: 1°F , -17°C
Humidity: 72%
Barometer: 1021 hPa
Clouds: Clear
Visibility: 9 miles , 14 km
2022/01/28 10:00 CYOO 281000Z AUTO 33010G20KT 9SM CLR M13/M17 A3015 RMK SLP221
CWWB - Burlington Piers, Ontario, Canada
Distance from station: WNW 56mi, 91km
Updated: 01/28/2022 5:00am

 Wind from NNW
Wind: NNW 16 mph , 26 km/h
Temperature: 19°F , -7°C
Wind Chill: 4°F , -16°C
Dew Point: 10°F , -12°C
Humidity: 68%
2022/01/28 10:00 CWWB 281000Z AUTO 34014KT M07/M12 RMK AO1 PK WND 00019/0921 SLP229 T10741119 53025
 
CYYZ - Toronto/Pearson, Ontario, Canada
Distance from station: NW 60mi, 96km
Updated: 01/28/2022 5:00am
Low drifting snow, Few clouds
Low drifting snow, Few clouds
 Wind from N
Wind: N 20 mph , 31 km/h, Gust: 28 mph , 44 km/h
Temperature: 9°F , -13°C
Wind Chill: -10°F , -23°C
Dew Point: 1°F , -17°C
Humidity: 72%
Barometer: 1021.7 hPa
Summary: Low Drifting Snow
Clouds: Few Clouds
Visibility: 15 miles , 24 km
Cloud details: Few Clouds 5000 ft
2022/01/28 10:00 CYYZ 281000Z 35017G24KT 15SM DRSN FEW050 M13/M17 A3017 RMK SC2 SLP229
CYKZ - Toronto Buttonvi, Ontario, Canada
Distance from station: NW 62mi, 99km
Updated: 01/03/2019 4:00am
NOT Current
Partly cloudy
Partly cloudy
 Wind from WSW
Wind: WSW 5 mph , 7 km/h
Temperature: 27°F , -3°C
Wind Chill: 21°F , -6°C
Dew Point: 23°F , -5°C
Humidity: 86%
Barometer: 1010.8 hPa
Clouds: Partly cloudy
Visibility: 15 miles , 24 km
Cloud details: Partly cloudy 4000 ft
2019/01/03 09:00 CYKZ 030900Z 25004KT 15SM SCT040 M03/M05 A2985 RMK SC3 LAST STFD OBS FAREWELL SLP118
 
CXHM - Hamilton Rbg Cs, Ontario, Canada
Distance from station: W 62mi, 100km
Updated: 01/28/2022 5:00am

 Wind from NNE
Wind: NNE 3 mph , 6 km/h
Temperature: 19°F , -7°C
Dew Point: 10°F , -12°C
Humidity: 68%
2022/01/28 10:00 CXHM 281000Z AUTO 03003KT M07/M12 RMK AO1 SLP229 T10711115 53022
KDSV - Dansville, New York, USA
Distance from station: SE 62mi, 100km
Updated: 01/28/2022 4:54am
Overcast
Overcast
 Wind from NNW
Wind: NNW 6 mph , 9 km/h
Temperature: 27°F , -3°C
Wind Chill: 20°F , -7°C
Dew Point: 21°F , -6°C
Humidity: 80%
Barometer: 1018.6 hPa
Clouds: Overcast
Visibility: 7 miles , 11 km
Cloud details: Overcast 1900 ft
2022/01/28 09:54 KDSV 280954Z AUTO 34005KT 7SM OVC019 M03/M06 A3008 RMK AO2 SNB25E35 SLP202 P0000 T10281061
 
CYHM - Hamilton Airport, Ontario, Canada
Distance from station: W 63mi, 101km
Updated: 01/28/2022 5:00am
Light snow, Overcast
Light snow, Overcast
 Wind from N
Wind: N 10 mph , 17 km/h
Temperature: 18°F , -8°C
Wind Chill: 6°F , -14°C
Dew Point: 10°F , -12°C
Humidity: 73%
Barometer: 1020.3 hPa
Summary: Light Snow
Clouds: Overcast
Visibility: 15 miles , 24 km
Cloud details: Few Clouds 2500 ft
Overcast 6200 ft
2022/01/28 10:00 CYHM 281000Z 35009KT 15SM -SN FEW025 OVC062 M08/M12 A3013 RMK CF1SC7 SLP217
CWNC - Cobourg (mars), Ontario, Canada
Distance from station: NNE 63mi, 102km
Updated: 01/28/2022 5:00am

 Wind from NNW
Wind: NNW 6 mph , 9 km/h
Temperature: 14°F , -10°C
Wind Chill: 5°F , -15°C
Dew Point: 7°F , -14°C
Humidity: 73%
2022/01/28 10:00 CWNC 281000Z AUTO 33005KT M10/M14 RMK AO1 SOG 12 3035 SLP213 T10971135